sensor_id;sensor_type;location;lat;lon;timestamp;temperature;humidity
41547;DHT22;27271;45.412;10.852;2023-02-12T00:01:20;-1.40;1.00
41547;DHT22;27271;45.412;10.852;2023-02-12T00:04:42;-1.40;10.30
41547;DHT22;27271;45.412;10.852;2023-02-12T00:08:05;-1.50;1.00
41547;DHT22;27271;45.412;10.852;2023-02-12T00:11:28;-1.50;5.20
41547;DHT22;27271;45.412;10.852;2023-02-12T00:14:50;-1.50;29.70
41547;DHT22;27271;45.412;10.852;2023-02-12T00:18:12;-1.50;1.00
41547;DHT22;27271;45.412;10.852;2023-02-12T00:21:35;-1.50;12.00
41547;DHT22;27271;45.412;10.852;2023-02-12T00:24:57;-1.50;1.00
41547;DHT22;27271;45.412;10.852;2023-02-12T00:28:19;-1.50;1.00
41547;DHT22;27271;45.412;10.852;2023-02-12T00:31:41;-1.50;19.80
41547;DHT22;27271;45.412;10.852;2023-02-12T00:35:04;-1.40;1.00
41547;DHT22;27271;45.412;10.852;2023-02-12T00:38:26;-1.30;1.00
41547;DHT22;27271;45.412;10.852;2023-02-12T00:41:48;-1.30;1.00
41547;DHT22;27271;45.412;10.852;2023-02-12T00:45:10;-1.30;1.00
41547;DHT22;27271;45.412;10.852;2023-02-12T00:48:33;-1.40;1.00
41547;DHT22;27271;45.412;10.852;2023-02-12T00:51:55;-1.40;1.00
41547;DHT22;27271;45.412;10.852;2023-02-12T00:55:17;-1.40;16.80
41547;DHT22;27271;45.412;10.852;2023-02-12T00:58:39;-1.50;1.00
41547;DHT22;27271;45.412;10.852;2023-02-12T01:02:01;-1.50;42.60
41547;DHT22;27271;45.412;10.852;2023-02-12T01:05:23;-1.60;16.80
41547;DHT22;27271;45.412;10.852;2023-02-12T01:08:49;-1.50;1.00
41547;DHT22;27271;45.412;10.852;2023-02-12T01:12:12;-1.60;1.00
41547;DHT22;27271;45.412;10.852;2023-02-12T01:15:34;-1.60;32.40
41547;DHT22;27271;45.412;10.852;2023-02-12T01:18:58;-1.50;99.90
41547;DHT22;27271;45.412;10.852;2023-02-12T01:22:22;-1.60;91.20
41547;DHT22;27271;45.412;10.852;2023-02-12T01:25:44;-1.60;99.90
41547;DHT22;27271;45.412;10.852;2023-02-12T01:29:06;-1.60;99.90
41547;DHT22;27271;45.412;10.852;2023-02-12T01:32:28;-1.60;99.90
41547;DHT22;27271;45.412;10.852;2023-02-12T01:35:50;-1.70;99.90
41547;DHT22;27271;45.412;10.852;2023-02-12T01:39:13;-1.70;99.90
41547;DHT22;27271;45.412;10.852;2023-02-12T01:42:35;-1.70;99.90
41547;DHT22;27271;45.412;10.852;2023-02-12T01:45:58;-1.80;99.90
41547;DHT22;27271;45.412;10.852;2023-02-12T01:49:23;-1.70;99.90
41547;DHT22;27271;45.412;10.852;2023-02-12T01:52:52;-1.70;99.90
41547;DHT22;27271;45.412;10.852;2023-02-12T01:56:15;-1.80;99.90
41547;DHT22;27271;45.412;10.852;2023-02-12T01:59:39;-1.90;99.90
41547;DHT22;27271;45.412;10.852;2023-02-12T02:03:03;-1.90;99.90
41547;DHT22;27271;45.412;10.852;2023-02-12T02:06:30;-2.00;99.90
41547;DHT22;27271;45.412;10.852;2023-02-12T02:09:55;-2.10;99.90
41547;DHT22;27271;45.412;10.852;2023-02-12T02:13:21;-2.00;1.00
41547;DHT22;27271;45.412;10.852;2023-02-12T02:36:14;-2.00;99.90
41547;DHT22;27271;45.412;10.852;2023-02-12T02:43:14;-2.00;99.90
41547;DHT22;27271;45.412;10.852;2023-02-12T02:46:49;-2.10;99.90
41547;DHT22;27271;45.412;10.852;2023-02-12T02:50:16;-2.10;1.00
41547;DHT22;27271;45.412;10.852;2023-02-12T02:53:46;-2.10;1.00
41547;DHT22;27271;45.412;10.852;2023-02-12T03:00:50;-2.10;1.00
41547;DHT22;27271;45.412;10.852;2023-02-12T03:04:19;-2.10;1.00
41547;DHT22;27271;45.412;10.852;2023-02-12T03:07:51;-2.10;1.00
41547;DHT22;27271;45.412;10.852;2023-02-12T03:11:30;-2.10;99.90
41547;DHT22;27271;45.412;10.852;2023-02-12T03:15:02;-2.20;1.00
41547;DHT22;27271;45.412;10.852;2023-02-12T03:18:32;-2.20;99.90
41547;DHT22;27271;45.412;10.852;2023-02-12T03:22:08;-1.90;99.90
41547;DHT22;27271;45.412;10.852;2023-02-12T03:25:54;-1.70;99.90
41547;DHT22;27271;45.412;10.852;2023-02-12T03:29:18;-1.60;99.90
41547;DHT22;27271;45.412;10.852;2023-02-12T03:44:02;-1.70;99.90
41547;DHT22;27271;45.412;10.852;2023-02-12T03:47:48;-1.70;99.90
41547;DHT22;27271;45.412;10.852;2023-02-12T03:54:39;-1.80;99.90
41547;DHT22;27271;45.412;10.852;2023-02-12T03:58:02;-1.90;99.90
41547;DHT22;27271;45.412;10.852;2023-02-12T04:01:28;-1.90;99.90
41547;DHT22;27271;45.412;10.852;2023-02-12T04:04:51;-2.00;99.90
41547;DHT22;27271;45.412;10.852;2023-02-12T04:08:13;-1.90;1.00
41547;DHT22;27271;45.412;10.852;2023-02-12T04:15:15;-2.10;1.00
41547;DHT22;27271;45.412;10.852;2023-02-12T04:18:46;-2.10;99.90
41547;DHT22;27271;45.412;10.852;2023-02-12T04:26:17;-2.30;99.90
41547;DHT22;27271;45.412;10.852;2023-02-12T04:29:47;-2.30;99.90
41547;DHT22;27271;45.412;10.852;2023-02-12T04:33:15;-2.40;1.00
41547;DHT22;27271;45.412;10.852;2023-02-12T04:36:53;-2.40;1.00
41547;DHT22;27271;45.412;10.852;2023-02-12T04:40:18;-2.40;1.00
41547;DHT22;27271;45.412;10.852;2023-02-12T04:43:41;-2.40;19.30
41547;DHT22;27271;45.412;10.852;2023-02-12T04:47:03;-2.40;98.50
41547;DHT22;27271;45.412;10.852;2023-02-12T04:50:26;-2.40;12.40
41547;DHT22;27271;45.412;10.852;2023-02-12T04:53:49;-2.40;27.70
41547;DHT22;27271;45.412;10.852;2023-02-12T04:57:11;-2.50;1.00
41547;DHT22;27271;45.412;10.852;2023-02-12T05:00:33;-2.60;1.00
41547;DHT22;27271;45.412;10.852;2023-02-12T05:03:55;-2.60;99.90
41547;DHT22;27271;45.412;10.852;2023-02-12T05:07:17;-2.60;99.90
41547;DHT22;27271;45.412;10.852;2023-02-12T05:10:39;-2.60;59.10
41547;DHT22;27271;45.412;10.852;2023-02-12T05:14:01;-2.70;76.70
41547;DHT22;27271;45.412;10.852;2023-02-12T05:17:24;-2.60;1.00
41547;DHT22;27271;45.412;10.852;2023-02-12T05:20:54;-2.70;1.00
41547;DHT22;27271;45.412;10.852;2023-02-12T05:24:17;-2.80;1.00
41547;DHT22;27271;45.412;10.852;2023-02-12T05:27:39;-2.80;42.60
41547;DHT22;27271;45.412;10.852;2023-02-12T05:31:03;-2.90;97.40
41547;DHT22;27271;45.412;10.852;2023-02-12T05:34:26;-2.90;99.90
41547;DHT22;27271;45.412;10.852;2023-02-12T05:37:47;-2.90;99.90
41547;DHT22;27271;45.412;10.852;2023-02-12T05:41:12;-2.80;99.90
41547;DHT22;27271;45.412;10.852;2023-02-12T05:44:35;-2.80;99.90
41547;DHT22;27271;45.412;10.852;2023-02-12T05:47:57;-2.70;99.90
41547;DHT22;27271;45.412;10.852;2023-02-12T05:51:22;-2.70;99.90
41547;DHT22;27271;45.412;10.852;2023-02-12T05:54:44;-2.60;99.90
41547;DHT22;27271;45.412;10.852;2023-02-12T05:58:06;-2.70;99.90
41547;DHT22;27271;45.412;10.852;2023-02-12T06:01:34;-2.60;99.90
41547;DHT22;27271;45.412;10.852;2023-02-12T06:04:56;-2.60;99.90
41547;DHT22;27271;45.412;10.852;2023-02-12T06:08:18;-2.70;99.90
41547;DHT22;27271;45.412;10.852;2023-02-12T06:11:41;-2.60;99.90
41547;DHT22;27271;45.412;10.852;2023-02-12T06:15:04;-2.60;99.90
41547;DHT22;27271;45.412;10.852;2023-02-12T06:18:26;-2.50;99.90
41547;DHT22;27271;45.412;10.852;2023-02-12T06:21:49;-2.50;99.90
41547;DHT22;27271;45.412;10.852;2023-02-12T06:25:11;-2.50;99.90
41547;DHT22;27271;45.412;10.852;2023-02-12T06:28:33;-2.40;99.90
41547;DHT22;27271;45.412;10.852;2023-02-12T06:31:55;-2.40;99.90
41547;DHT22;27271;45.412;10.852;2023-02-12T06:35:17;-2.30;99.90
41547;DHT22;27271;45.412;10.852;2023-02-12T06:38:39;-2.30;92.30
41547;DHT22;27271;45.412;10.852;2023-02-12T06:42:01;-2.20;95.60
41547;DHT22;27271;45.412;10.852;2023-02-12T06:45:23;-2.20;68.20
41547;DHT22;27271;45.412;10.852;2023-02-12T06:48:45;-2.10;78.10
41547;DHT22;27271;45.412;10.852;2023-02-12T06:52:08;-2.10;67.80
41547;DHT22;27271;45.412;10.852;2023-02-12T06:55:30;-2.00;95.40
41547;DHT22;27271;45.412;10.852;2023-02-12T06:58:57;-1.90;60.80
41547;DHT22;27271;45.412;10.852;2023-02-12T07:02:19;-1.90;1.00
41547;DHT22;27271;45.412;10.852;2023-02-12T07:05:41;-1.80;1.00
41547;DHT22;27271;45.412;10.852;2023-02-12T07:09:04;-1.60;1.00
41547;DHT22;27271;45.412;10.852;2023-02-12T07:12:27;-1.50;1.00
41547;DHT22;27271;45.412;10.852;2023-02-12T07:15:49;-1.20;1.00
41547;DHT22;27271;45.412;10.852;2023-02-12T07:19:12;-0.90;99.90
41547;DHT22;27271;45.412;10.852;2023-02-12T07:22:35;-0.60;99.90
41547;DHT22;27271;45.412;10.852;2023-02-12T07:26:00;0.20;87.20
41547;DHT22;27271;45.412;10.852;2023-02-12T07:29:22;1.50;99.90
41547;DHT22;27271;45.412;10.852;2023-02-12T07:32:44;2.60;17.70
41547;DHT22;27271;45.412;10.852;2023-02-12T07:36:09;3.10;1.00
41547;DHT22;27271;45.412;10.852;2023-02-12T07:39:32;3.30;1.00
41547;DHT22;27271;45.412;10.852;2023-02-12T07:42:54;3.40;1.00
41547;DHT22;27271;45.412;10.852;2023-02-12T07:46:19;3.60;1.00
41547;DHT22;27271;45.412;10.852;2023-02-12T07:49:41;3.90;1.00
41547;DHT22;27271;45.412;10.852;2023-02-12T07:53:03;4.50;1.00
41547;DHT22;27271;45.412;10.852;2023-02-12T07:56:28;5.80;1.00
41547;DHT22;27271;45.412;10.852;2023-02-12T07:59:52;7.50;1.00
41547;DHT22;27271;45.412;10.852;2023-02-12T08:03:14;9.60;1.00
41547;DHT22;27271;45.412;10.852;2023-02-12T08:06:39;10.70;1.00
41547;DHT22;27271;45.412;10.852;2023-02-12T08:10:01;12.00;1.00
41547;DHT22;27271;45.412;10.852;2023-02-12T08:13:23;13.30;1.00
41547;DHT22;27271;45.412;10.852;2023-02-12T08:16:46;13.90;1.00
41547;DHT22;27271;45.412;10.852;2023-02-12T08:20:09;14.30;1.00
41547;DHT22;27271;45.412;10.852;2023-02-12T08:23:31;14.80;1.00
41547;DHT22;27271;45.412;10.852;2023-02-12T08:26:53;13.70;1.00
41547;DHT22;27271;45.412;10.852;2023-02-12T08:30:15;13.60;1.00
41547;DHT22;27271;45.412;10.852;2023-02-12T08:33:37;13.20;1.00
41547;DHT22;27271;45.412;10.852;2023-02-12T08:37:00;13.50;1.00
41547;DHT22;27271;45.412;10.852;2023-02-12T08:40:23;14.20;1.00
41547;DHT22;27271;45.412;10.852;2023-02-12T08:43:45;14.80;1.00
41547;DHT22;27271;45.412;10.852;2023-02-12T08:47:08;15.00;1.00
41547;DHT22;27271;45.412;10.852;2023-02-12T08:50:30;14.40;1.00
41547;DHT22;27271;45.412;10.852;2023-02-12T08:53:55;14.30;1.00
41547;DHT22;27271;45.412;10.852;2023-02-12T08:57:17;14.70;1.00
41547;DHT22;27271;45.412;10.852;2023-02-12T09:00:39;14.80;1.00
41547;DHT22;27271;45.412;10.852;2023-02-12T09:04:01;15.10;1.00
41547;DHT22;27271;45.412;10.852;2023-02-12T09:07:23;15.80;1.00
41547;DHT22;27271;45.412;10.852;2023-02-12T09:10:45;15.20;1.00
41547;DHT22;27271;45.412;10.852;2023-02-12T09:14:11;16.10;1.00
41547;DHT22;27271;45.412;10.852;2023-02-12T09:17:33;16.90;1.00
41547;DHT22;27271;45.412;10.852;2023-02-12T09:21:00;17.10;1.00
41547;DHT22;27271;45.412;10.852;2023-02-12T09:24:24;16.90;1.00
41547;DHT22;27271;45.412;10.852;2023-02-12T09:27:48;17.00;1.00
41547;DHT22;27271;45.412;10.852;2023-02-12T09:31:13;16.60;1.00
41547;DHT22;27271;45.412;10.852;2023-02-12T09:34:35;16.10;1.00
41547;DHT22;27271;45.412;10.852;2023-02-12T09:37:57;16.60;1.00
41547;DHT22;27271;45.412;10.852;2023-02-12T09:45:15;18.00;1.00
41547;DHT22;27271;45.412;10.852;2023-02-12T09:52:02;17.10;1.00
41547;DHT22;27271;45.412;10.852;2023-02-12T09:55:33;17.50;1.00
41547;DHT22;27271;45.412;10.852;2023-02-12T09:58:59;16.80;1.00
41547;DHT22;27271;45.412;10.852;2023-02-12T10:02:22;16.80;1.00
41547;DHT22;27271;45.412;10.852;2023-02-12T10:05:56;17.00;1.00
41547;DHT22;27271;45.412;10.852;2023-02-12T10:13:51;17.60;1.00
41547;DHT22;27271;45.412;10.852;2023-02-12T10:17:42;17.90;1.00
41547;DHT22;27271;45.412;10.852;2023-02-12T10:28:40;17.20;1.00
41547;DHT22;27271;45.412;10.852;2023-02-12T10:32:11;16.90;1.00
41547;DHT22;27271;45.412;10.852;2023-02-12T10:35:35;17.30;1.00
41547;DHT22;27271;45.412;10.852;2023-02-12T10:39:24;17.20;1.00
41547;DHT22;27271;45.412;10.852;2023-02-12T10:42:49;17.20;1.00
41547;DHT22;27271;45.412;10.852;2023-02-12T10:46:16;16.40;1.00
41547;DHT22;27271;45.412;10.852;2023-02-12T10:49:38;15.60;1.00
41547;DHT22;27271;45.412;10.852;2023-02-12T10:53:01;15.00;1.00
41547;DHT22;27271;45.412;10.852;2023-02-12T10:56:24;14.90;1.00
41547;DHT22;27271;45.412;10.852;2023-02-12T10:59:48;14.60;1.00
41547;DHT22;27271;45.412;10.852;2023-02-12T11:06:33;14.20;1.00
41547;DHT22;27271;45.412;10.852;2023-02-12T11:09:56;14.40;1.00
41547;DHT22;27271;45.412;10.852;2023-02-12T11:13:25;14.70;1.00
41547;DHT22;27271;45.412;10.852;2023-02-12T11:16:56;14.80;1.00
41547;DHT22;27271;45.412;10.852;2023-02-12T11:20:27;14.50;1.00
41547;DHT22;27271;45.412;10.852;2023-02-12T11:23:51;14.20;1.00
41547;DHT22;27271;45.412;10.852;2023-02-12T11:30:48;13.30;1.00
41547;DHT22;27271;45.412;10.852;2023-02-12T11:34:17;13.50;1.00
41547;DHT22;27271;45.412;10.852;2023-02-12T11:37:44;13.60;1.00
41547;DHT22;27271;45.412;10.852;2023-02-12T11:44:57;13.50;1.00
41547;DHT22;27271;45.412;10.852;2023-02-12T11:48:33;13.40;1.00
41547;DHT22;27271;45.412;10.852;2023-02-12T11:51:57;13.20;1.00
41547;DHT22;27271;45.412;10.852;2023-02-12T11:55:28;13.50;1.00
41547;DHT22;27271;45.412;10.852;2023-02-12T11:59:11;13.60;1.00
41547;DHT22;27271;45.412;10.852;2023-02-12T12:02:44;13.50;1.00
41547;DHT22;27271;45.412;10.852;2023-02-12T12:06:40;13.20;1.00
41547;DHT22;27271;45.412;10.852;2023-02-12T12:10:14;13.10;1.00
41547;DHT22;27271;45.412;10.852;2023-02-12T12:13:55;13.20;1.00
41547;DHT22;27271;45.412;10.852;2023-02-12T12:17:18;13.30;1.00
41547;DHT22;27271;45.412;10.852;2023-02-12T12:28:51;13.10;1.00
41547;DHT22;27271;45.412;10.852;2023-02-12T12:32:15;13.30;1.00
41547;DHT22;27271;45.412;10.852;2023-02-12T12:36:07;13.60;1.00
41547;DHT22;27271;45.412;10.852;2023-02-12T12:43:42;13.40;1.00
41547;DHT22;27271;45.412;10.852;2023-02-12T12:51:17;13.20;1.00
41547;DHT22;27271;45.412;10.852;2023-02-12T12:59:03;13.20;1.00
41547;DHT22;27271;45.412;10.852;2023-02-12T13:09:44;13.00;1.00
41547;DHT22;27271;45.412;10.852;2023-02-12T13:17:04;13.00;1.00
41547;DHT22;27271;45.412;10.852;2023-02-12T13:24:39;13.10;1.00
41547;DHT22;27271;45.412;10.852;2023-02-12T13:28:05;13.10;1.00
41547;DHT22;27271;45.412;10.852;2023-02-12T13:31:34;13.00;1.00
41547;DHT22;27271;45.412;10.852;2023-02-12T13:35:00;13.00;1.00
41547;DHT22;27271;45.412;10.852;2023-02-12T13:38:36;12.90;1.00
41547;DHT22;27271;45.412;10.852;2023-02-12T13:45:55;13.00;1.00
41547;DHT22;27271;45.412;10.852;2023-02-12T13:49:36;13.00;1.00
41547;DHT22;27271;45.412;10.852;2023-02-12T14:07:44;13.30;1.00
41547;DHT22;27271;45.412;10.852;2023-02-12T14:11:12;13.40;1.00
41547;DHT22;27271;45.412;10.852;2023-02-12T14:14:43;13.30;1.00
41547;DHT22;27271;45.412;10.852;2023-02-12T14:18:22;13.30;1.00
41547;DHT22;27271;45.412;10.852;2023-02-12T14:21:45;13.40;1.00
41547;DHT22;27271;45.412;10.852;2023-02-12T14:28:54;13.30;1.00
41547;DHT22;27271;45.412;10.852;2023-02-12T14:36:14;13.30;1.00
41547;DHT22;27271;45.412;10.852;2023-02-12T14:39:37;13.30;1.00
41547;DHT22;27271;45.412;10.852;2023-02-12T14:43:01;13.20;1.00
41547;DHT22;27271;45.412;10.852;2023-02-12T14:49:51;13.00;1.00
41547;DHT22;27271;45.412;10.852;2023-02-12T14:53:33;12.90;1.00
41547;DHT22;27271;45.412;10.852;2023-02-12T14:56:59;12.80;1.00
41547;DHT22;27271;45.412;10.852;2023-02-12T15:00:30;12.70;1.00
41547;DHT22;27271;45.412;10.852;2023-02-12T15:03:54;12.60;1.00
41547;DHT22;27271;45.412;10.852;2023-02-12T15:07:36;12.60;1.00
41547;DHT22;27271;45.412;10.852;2023-02-12T15:11:05;12.50;1.00
41547;DHT22;27271;45.412;10.852;2023-02-12T15:14:31;12.40;1.00
41547;DHT22;27271;45.412;10.852;2023-02-12T15:18:05;12.30;1.00
41547;DHT22;27271;45.412;10.852;2023-02-12T15:21:32;12.30;1.00
41547;DHT22;27271;45.412;10.852;2023-02-12T15:25:28;12.20;1.00
41547;DHT22;27271;45.412;10.852;2023-02-12T15:28:52;12.10;1.00
41547;DHT22;27271;45.412;10.852;2023-02-12T15:32:26;12.00;1.00
41547;DHT22;27271;45.412;10.852;2023-02-12T15:35:49;11.90;1.00
41547;DHT22;27271;45.412;10.852;2023-02-12T15:39:18;11.90;1.00
41547;DHT22;27271;45.412;10.852;2023-02-12T15:42:57;11.80;1.00
41547;DHT22;27271;45.412;10.852;2023-02-12T15:46:20;11.80;1.00
41547;DHT22;27271;45.412;10.852;2023-02-12T15:49:42;11.80;1.00
41547;DHT22;27271;45.412;10.852;2023-02-12T15:53:04;11.70;1.00
41547;DHT22;27271;45.412;10.852;2023-02-12T15:56:27;11.60;1.00
41547;DHT22;27271;45.412;10.852;2023-02-12T15:59:50;11.60;1.00
41547;DHT22;27271;45.412;10.852;2023-02-12T16:03:24;11.50;1.00
41547;DHT22;27271;45.412;10.852;2023-02-12T16:06:46;11.40;1.00
41547;DHT22;27271;45.412;10.852;2023-02-12T16:10:13;11.20;1.00
41547;DHT22;27271;45.412;10.852;2023-02-12T16:13:36;11.20;1.00
41547;DHT22;27271;45.412;10.852;2023-02-12T16:16:58;11.10;1.00
41547;DHT22;27271;45.412;10.852;2023-02-12T16:20:24;10.90;1.00
41547;DHT22;27271;45.412;10.852;2023-02-12T16:23:50;10.80;1.00
41547;DHT22;27271;45.412;10.852;2023-02-12T16:27:26;10.70;1.00
41547;DHT22;27271;45.412;10.852;2023-02-12T16:30:48;10.60;1.00
41547;DHT22;27271;45.412;10.852;2023-02-12T16:34:30;10.50;1.00
41547;DHT22;27271;45.412;10.852;2023-02-12T16:37:59;10.40;1.00
41547;DHT22;27271;45.412;10.852;2023-02-12T16:41:28;10.30;1.00
41547;DHT22;27271;45.412;10.852;2023-02-12T16:44:53;10.10;1.00
41547;DHT22;27271;45.412;10.852;2023-02-12T16:48:24;10.00;1.00
41547;DHT22;27271;45.412;10.852;2023-02-12T16:51:47;9.90;1.00
41547;DHT22;27271;45.412;10.852;2023-02-12T16:55:13;9.70;1.00
41547;DHT22;27271;45.412;10.852;2023-02-12T16:58:35;9.70;1.00
41547;DHT22;27271;45.412;10.852;2023-02-12T17:01:59;9.60;1.00
41547;DHT22;27271;45.412;10.852;2023-02-12T17:05:22;9.50;1.00
41547;DHT22;27271;45.412;10.852;2023-02-12T17:08:44;9.40;1.00
41547;DHT22;27271;45.412;10.852;2023-02-12T17:12:06;9.40;1.00
41547;DHT22;27271;45.412;10.852;2023-02-12T17:15:33;9.40;1.00
41547;DHT22;27271;45.412;10.852;2023-02-12T17:19:04;9.30;1.00
41547;DHT22;27271;45.412;10.852;2023-02-12T17:22:26;9.00;1.00
41547;DHT22;27271;45.412;10.852;2023-02-12T17:25:49;8.80;1.00
41547;DHT22;27271;45.412;10.852;2023-02-12T17:29:11;8.60;1.00
41547;DHT22;27271;45.412;10.852;2023-02-12T17:32:33;8.50;1.00
41547;DHT22;27271;45.412;10.852;2023-02-12T17:35:59;8.40;1.00
41547;DHT22;27271;45.412;10.852;2023-02-12T17:39:21;8.10;1.00
41547;DHT22;27271;45.412;10.852;2023-02-12T17:42:44;8.10;1.00
41547;DHT22;27271;45.412;10.852;2023-02-12T17:46:16;8.00;1.00
41547;DHT22;27271;45.412;10.852;2023-02-12T17:49:38;7.80;1.00
41547;DHT22;27271;45.412;10.852;2023-02-12T17:53:01;7.50;1.00
41547;DHT22;27271;45.412;10.852;2023-02-12T17:56:23;7.40;1.00
41547;DHT22;27271;45.412;10.852;2023-02-12T17:59:48;7.50;1.00
41547;DHT22;27271;45.412;10.852;2023-02-12T18:03:10;7.60;1.00
41547;DHT22;27271;45.412;10.852;2023-02-12T18:06:32;7.90;1.00
41547;DHT22;27271;45.412;10.852;2023-02-12T18:09:54;7.90;1.00
41547;DHT22;27271;45.412;10.852;2023-02-12T18:13:16;7.80;1.00
41547;DHT22;27271;45.412;10.852;2023-02-12T18:16:38;7.70;1.00
41547;DHT22;27271;45.412;10.852;2023-02-12T18:20:00;7.50;1.00
41547;DHT22;27271;45.412;10.852;2023-02-12T18:23:22;7.50;1.00
41547;DHT22;27271;45.412;10.852;2023-02-12T18:26:44;7.50;1.00
41547;DHT22;27271;45.412;10.852;2023-02-12T18:30:08;7.60;1.00
41547;DHT22;27271;45.412;10.852;2023-02-12T18:33:31;7.80;1.00
41547;DHT22;27271;45.412;10.852;2023-02-12T18:36:53;7.90;1.00
41547;DHT22;27271;45.412;10.852;2023-02-12T18:40:15;7.90;1.00
41547;DHT22;27271;45.412;10.852;2023-02-12T18:43:38;7.70;1.00
41547;DHT22;27271;45.412;10.852;2023-02-12T18:47:00;7.60;1.00
41547;DHT22;27271;45.412;10.852;2023-02-12T18:50:22;7.50;1.00
41547;DHT22;27271;45.412;10.852;2023-02-12T18:53:44;7.50;1.00
41547;DHT22;27271;45.412;10.852;2023-02-12T18:57:07;7.40;1.00
41547;DHT22;27271;45.412;10.852;2023-02-12T19:00:29;7.30;1.00
41547;DHT22;27271;45.412;10.852;2023-02-12T19:03:56;7.20;1.00
41547;DHT22;27271;45.412;10.852;2023-02-12T19:07:19;7.10;1.00
41547;DHT22;27271;45.412;10.852;2023-02-12T19:10:41;7.10;1.00
41547;DHT22;27271;45.412;10.852;2023-02-12T19:14:04;7.00;1.00
41547;DHT22;27271;45.412;10.852;2023-02-12T19:17:27;7.00;1.00
41547;DHT22;27271;45.412;10.852;2023-02-12T19:20:49;6.80;1.00
41547;DHT22;27271;45.412;10.852;2023-02-12T19:24:13;6.60;1.00
41547;DHT22;27271;45.412;10.852;2023-02-12T19:27:35;6.40;1.00
41547;DHT22;27271;45.412;10.852;2023-02-12T19:30:57;6.30;1.00
41547;DHT22;27271;45.412;10.852;2023-02-12T19:34:21;6.10;1.00
41547;DHT22;27271;45.412;10.852;2023-02-12T19:37:43;6.00;1.00
41547;DHT22;27271;45.412;10.852;2023-02-12T19:41:11;6.00;1.00
41547;DHT22;27271;45.412;10.852;2023-02-12T19:44:33;5.90;1.00
41547;DHT22;27271;45.412;10.852;2023-02-12T19:47:56;5.90;1.00
41547;DHT22;27271;45.412;10.852;2023-02-12T19:51:20;5.80;1.00
41547;DHT22;27271;45.412;10.852;2023-02-12T19:54:43;5.80;1.00
41547;DHT22;27271;45.412;10.852;2023-02-12T19:58:05;5.70;1.00
41547;DHT22;27271;45.412;10.852;2023-02-12T20:01:30;5.60;1.00
41547;DHT22;27271;45.412;10.852;2023-02-12T20:04:52;5.40;1.00
41547;DHT22;27271;45.412;10.852;2023-02-12T20:08:14;5.20;1.00
41547;DHT22;27271;45.412;10.852;2023-02-12T20:11:36;5.10;1.00
41547;DHT22;27271;45.412;10.852;2023-02-12T20:14:59;4.90;1.00
41547;DHT22;27271;45.412;10.852;2023-02-12T20:18:23;4.70;1.00
41547;DHT22;27271;45.412;10.852;2023-02-12T20:21:46;4.60;1.00
41547;DHT22;27271;45.412;10.852;2023-02-12T20:25:13;4.40;1.00
41547;DHT22;27271;45.412;10.852;2023-02-12T20:28:36;4.20;1.00
41547;DHT22;27271;45.412;10.852;2023-02-12T20:31:59;4.30;1.00
41547;DHT22;27271;45.412;10.852;2023-02-12T20:35:21;4.30;1.00
41547;DHT22;27271;45.412;10.852;2023-02-12T20:38:43;4.20;1.00
41547;DHT22;27271;45.412;10.852;2023-02-12T20:42:05;4.00;1.00
41547;DHT22;27271;45.412;10.852;2023-02-12T20:45:27;3.90;1.00
41547;DHT22;27271;45.412;10.852;2023-02-12T20:48:50;3.80;1.00
41547;DHT22;27271;45.412;10.852;2023-02-12T20:52:13;3.70;1.00
41547;DHT22;27271;45.412;10.852;2023-02-12T20:55:35;3.60;1.00
41547;DHT22;27271;45.412;10.852;2023-02-12T20:58:58;3.50;1.00
41547;DHT22;27271;45.412;10.852;2023-02-12T21:02:20;3.40;1.00
41547;DHT22;27271;45.412;10.852;2023-02-12T21:05:42;3.40;1.00
41547;DHT22;27271;45.412;10.852;2023-02-12T21:09:06;3.30;1.00
41547;DHT22;27271;45.412;10.852;2023-02-12T21:12:28;3.30;1.00
41547;DHT22;27271;45.412;10.852;2023-02-12T21:15:50;3.10;1.00
41547;DHT22;27271;45.412;10.852;2023-02-12T21:19:12;3.00;1.00
41547;DHT22;27271;45.412;10.852;2023-02-12T21:22:34;2.90;20.40
41547;DHT22;27271;45.412;10.852;2023-02-12T21:26:04;2.70;18.50
41547;DHT22;27271;45.412;10.852;2023-02-12T21:29:27;2.70;23.60
41547;DHT22;27271;45.412;10.852;2023-02-12T21:32:53;2.60;37.70
41547;DHT22;27271;45.412;10.852;2023-02-12T21:37:00;2.60;44.40
41547;DHT22;27271;45.412;10.852;2023-02-12T21:40:03;2.60;59.30
41547;DHT22;27271;45.412;10.852;2023-02-12T21:43:25;2.50;90.70
41547;DHT22;27271;45.412;10.852;2023-02-12T21:46:47;2.40;76.80
41547;DHT22;27271;45.412;10.852;2023-02-12T21:50:09;2.40;83.50
41547;DHT22;27271;45.412;10.852;2023-02-12T21:53:34;2.30;93.80
41547;DHT22;27271;45.412;10.852;2023-02-12T21:56:57;2.30;99.90
41547;DHT22;27271;45.412;10.852;2023-02-12T22:00:20;2.30;99.90
41547;DHT22;27271;45.412;10.852;2023-02-12T22:03:43;2.40;74.10
41547;DHT22;27271;45.412;10.852;2023-02-12T22:07:05;2.40;71.10
41547;DHT22;27271;45.412;10.852;2023-02-12T22:10:28;2.50;54.30
41547;DHT22;27271;45.412;10.852;2023-02-12T22:13:50;2.50;49.40
41547;DHT22;27271;45.412;10.852;2023-02-12T22:17:13;2.60;27.50
41547;DHT22;27271;45.412;10.852;2023-02-12T22:20:35;2.70;37.40
41547;DHT22;27271;45.412;10.852;2023-02-12T22:24:00;2.70;29.90
41547;DHT22;27271;45.412;10.852;2023-02-12T22:27:22;2.70;23.00
41547;DHT22;27271;45.412;10.852;2023-02-12T22:30:44;2.70;18.60
41547;DHT22;27271;45.412;10.852;2023-02-12T22:34:12;2.80;7.30
41547;DHT22;27271;45.412;10.852;2023-02-12T22:37:34;2.80;8.40
41547;DHT22;27271;45.412;10.852;2023-02-12T22:40:59;2.80;1.00
41547;DHT22;27271;45.412;10.852;2023-02-12T22:44:22;2.90;1.00
41547;DHT22;27271;45.412;10.852;2023-02-12T22:47:44;2.90;1.00
41547;DHT22;27271;45.412;10.852;2023-02-12T22:51:17;2.90;1.00
41547;DHT22;27271;45.412;10.852;2023-02-12T22:54:39;2.90;1.00
41547;DHT22;27271;45.412;10.852;2023-02-12T22:58:02;3.00;1.00
41547;DHT22;27271;45.412;10.852;2023-02-12T23:01:25;3.00;1.00
41547;DHT22;27271;45.412;10.852;2023-02-12T23:04:47;3.00;1.00
41547;DHT22;27271;45.412;10.852;2023-02-12T23:08:09;2.90;1.00
41547;DHT22;27271;45.412;10.852;2023-02-12T23:11:32;2.90;1.00
41547;DHT22;27271;45.412;10.852;2023-02-12T23:14:54;2.90;1.00
41547;DHT22;27271;45.412;10.852;2023-02-12T23:18:16;2.90;1.00
41547;DHT22;27271;45.412;10.852;2023-02-12T23:21:39;3.00;1.00
41547;DHT22;27271;45.412;10.852;2023-02-12T23:25:01;2.90;1.00
41547;DHT22;27271;45.412;10.852;2023-02-12T23:28:23;2.90;1.00
41547;DHT22;27271;45.412;10.852;2023-02-12T23:31:45;2.90;1.00
41547;DHT22;27271;45.412;10.852;2023-02-12T23:35:07;3.00;1.00
41547;DHT22;27271;45.412;10.852;2023-02-12T23:38:29;2.90;1.00
41547;DHT22;27271;45.412;10.852;2023-02-12T23:41:51;2.90;1.00
41547;DHT22;27271;45.412;10.852;2023-02-12T23:45:14;2.90;1.00
41547;DHT22;27271;45.412;10.852;2023-02-12T23:48:36;2.80;1.00
41547;DHT22;27271;45.412;10.852;2023-02-12T23:51:58;2.80;1.00
41547;DHT22;27271;45.412;10.852;2023-02-12T23:55:20;2.80;1.00
41547;DHT22;27271;45.412;10.852;2023-02-12T23:58:42;2.90;1.00
